Time;durP1;ratioP1;P1;durP2;ratioP2;P2;SDS_P1;SDS_P2;PMS_P1;PMS_P2;Temp;Humidity;BMP_temperature;BMP_pressure;BME280_temperature;BME280_humidity;BME280_pressure;Samples;Min_cycle;Max_cycle;Signal;HPM_P1;HPM_P2
2021/01/19 00:02:11;;;;;;;8.82;4.95;;;2.20;99.90;;;;;;4729963;30;20102;-82
2021/01/19 00:04:37;;;;;;;11.20;4.97;;;2.10;99.90;;;;;;4717466;30;20028;-81
2021/01/19 00:07:03;;;;;;;8.93;4.25;;;2.10;99.90;;;;;;4730183;30;20032;-79
2021/01/19 00:09:29;;;;;;;8.68;5.07;;;2.20;99.90;;;;;;4731369;30;20080;-82
2021/01/19 00:11:55;;;;;;;10.73;4.60;;;2.30;99.90;;;;;;4715234;30;20040;-82
2021/01/19 00:14:21;;;;;;;10.13;4.95;;;2.30;99.90;;;;;;4729258;30;20036;-82
2021/01/19 00:16:47;;;;;;;10.52;4.80;;;2.50;99.90;;;;;;4715605;30;20059;-81
2021/01/19 00:19:14;;;;;;;7.10;4.13;;;2.50;99.90;;;;;;4729933;30;20059;-80
2021/01/19 00:21:40;;;;;;;8.50;4.45;;;2.40;99.90;;;;;;4718414;30;20041;-80
2021/01/19 00:24:07;;;;;;;10.50;4.65;;;2.50;99.90;;;;;;4717453;30;20037;-80
2021/01/19 00:26:33;;;;;;;13.95;4.97;;;2.50;99.90;;;;;;4724243;30;20033;-81
2021/01/19 00:28:59;;;;;;;8.73;4.22;;;2.50;99.90;;;;;;4723069;30;20044;-81
2021/01/19 00:31:26;;;;;;;9.93;4.82;;;2.60;99.90;;;;;;4723372;30;20502;-81
2021/01/19 00:33:52;;;;;;;10.07;4.05;;;2.60;99.90;;;;;;4738464;30;20032;-80
2021/01/19 00:36:19;;;;;;;16.52;4.82;;;2.70;99.90;;;;;;4732520;30;20067;-80
2021/01/19 00:38:45;;;;;;;9.98;4.47;;;2.70;99.90;;;;;;4732374;30;20432;-81
2021/01/19 00:41:12;;;;;;;10.02;4.50;;;2.70;99.90;;;;;;4726286;30;20183;-81
2021/01/19 00:43:38;;;;;;;7.97;4.57;;;2.80;99.90;;;;;;4728765;30;20044;-81
2021/01/19 00:46:04;;;;;;;7.25;3.58;;;2.80;99.90;;;;;;4704861;30;20029;-81
2021/01/19 05:05:37;;;;;;;9.45;2.50;;;2.70;99.90;;;;;;4905362;24;21966;-83
2021/01/19 05:08:14;;;;;;;8.88;3.03;;;2.70;99.90;;;;;;4706589;30;20049;-83
2021/01/19 05:10:41;;;;;;;5.82;2.78;;;2.80;99.90;;;;;;4698253;30;20081;-84
2021/01/19 05:17:41;;;;;;;2.95;2.28;;;2.70;99.90;;;;;;4727871;30;20453;-83
2021/01/19 05:20:10;;;;;;;3.58;2.33;;;2.70;99.90;;;;;;4714323;30;20487;-83
2021/01/19 05:22:42;;;;;;;6.28;2.08;;;2.80;99.90;;;;;;4731845;30;20071;-84
2021/01/19 05:25:29;;;;;;;5.85;2.72;;;2.80;99.90;;;;;;4734232;30;20045;-84
2021/01/19 05:28:14;;;;;;;2.42;1.60;;;2.90;99.90;;;;;;4732969;30;20033;-83
2021/01/19 05:31:06;;;;;;;2.78;1.73;;;3.00;99.90;;;;;;4719545;30;20504;-83
2021/01/19 05:33:36;;;;;;;5.13;1.80;;;3.10;99.90;;;;;;4732730;30;20040;-81
2021/01/19 05:36:15;;;;;;;4.93;2.15;;;3.10;99.90;;;;;;4726833;30;20032;-80
2021/01/19 05:38:48;;;;;;;4.75;2.42;;;3.10;99.90;;;;;;4724880;30;20091;-81
2021/01/19 05:41:47;;;;;;;4.05;2.17;;;3.00;99.90;;;;;;4719619;30;20036;-79
2021/01/19 05:44:21;;;;;;;7.30;2.45;;;2.90;99.90;;;;;;4717786;30;20084;-80
2021/01/19 05:46:59;;;;;;;7.30;2.63;;;2.80;99.90;;;;;;4738814;30;20033;-80
2021/01/19 05:49:28;;;;;;;4.15;2.30;;;2.80;99.90;;;;;;4729563;30;20709;-80
2021/01/19 05:51:59;;;;;;;13.43;2.35;;;2.80;99.90;;;;;;4741221;30;20029;-80
2021/01/19 05:54:28;;;;;;;3.83;2.05;;;2.80;99.90;;;;;;4740071;30;20082;-80
2021/01/19 05:57:12;;;;;;;5.90;2.85;;;2.80;99.90;;;;;;4720154;30;20368;-79
2021/01/19 05:59:41;;;;;;;;;;;2.80;99.90;;;;;;4733726;30;20040;-80
2021/01/19 06:02:16;;;;;;;9.88;3.78;;;2.90;99.90;;;;;;4732347;30;19918;-84
2021/01/19 06:04:47;;;;;;;5.43;2.63;;;2.90;99.90;;;;;;4733858;30;20040;-78
2021/01/19 06:07:15;;;;;;;13.73;4.95;;;2.90;99.90;;;;;;4731907;30;20064;-82
2021/01/19 06:09:43;;;;;;;8.60;2.45;;;2.90;99.90;;;;;;4728474;30;20068;-82
2021/01/19 06:12:10;;;;;;;7.45;2.70;;;2.90;99.90;;;;;;4719731;30;20040;-81
2021/01/19 06:14:37;;;;;;;4.82;2.10;;;3.00;99.90;;;;;;4716629;30;20045;-80
2021/01/19 06:17:11;;;;;;;13.07;5.10;;;3.00;99.90;;;;;;4703775;30;20032;-80
2021/01/19 06:19:40;;;;;;;3.15;2.10;;;3.00;99.90;;;;;;4732154;30;20037;-83
2021/01/19 06:22:15;;;;;;;4.43;2.63;;;3.00;99.90;;;;;;4703523;30;20044;-83
2021/01/19 06:24:43;;;;;;;3.40;2.05;;;2.90;99.90;;;;;;4715796;30;20115;-83
2021/01/19 06:27:12;;;;;;;4.47;2.60;;;2.90;99.90;;;;;;4731597;30;20115;-79
2021/01/19 06:29:38;;;;;;;5.15;3.60;;;2.90;99.90;;;;;;4720735;30;20053;-80
2021/01/19 06:32:07;;;;;;;5.50;3.05;;;2.90;99.90;;;;;;4727459;30;20465;-80
2021/01/19 06:34:38;;;;;;;5.15;3.28;;;2.90;99.90;;;;;;4734836;30;20024;-76
2021/01/19 06:37:06;;;;;;;4.28;2.00;;;2.90;99.90;;;;;;4732720;30;20035;-76
2021/01/19 06:39:41;;;;;;;7.07;2.70;;;3.00;99.90;;;;;;4732521;30;20031;-76
2021/01/19 06:42:09;;;;;;;3.88;2.22;;;3.10;99.90;;;;;;4731470;30;20040;-78
2021/01/19 06:44:39;;;;;;;3.65;2.15;;;3.10;99.90;;;;;;4735889;30;20031;-77
2021/01/19 06:47:06;;;;;;;9.40;2.28;;;3.20;99.90;;;;;;4731758;30;20471;-78
2021/01/19 06:49:37;;;;;;;5.85;1.88;;;3.20;99.90;;;;;;4724213;30;20052;-77
2021/01/19 06:52:06;;;;;;;3.65;1.90;;;3.30;99.90;;;;;;4732538;30;20025;-77
2021/01/19 06:54:52;;;;;;;3.72;1.90;;;3.40;99.90;;;;;;4717494;30;20069;-78
2021/01/19 06:57:32;;;;;;;2.72;2.05;;;3.50;99.90;;;;;;4730988;30;20513;-77
2021/01/19 07:00:30;;;;;;;2.33;1.65;;;3.60;99.90;;;;;;4732242;30;20055;-77
2021/01/19 07:03:27;;;;;;;5.32;1.95;;;3.60;99.90;;;;;;4719584;30;20075;-77
2021/01/19 07:05:59;;;;;;;4.65;2.03;;;3.60;99.90;;;;;;4737568;30;20509;-77
2021/01/19 07:08:41;;;;;;;5.95;2.50;;;3.60;99.90;;;;;;4731803;30;20528;-77
2021/01/19 07:11:36;;;;;;;5.63;2.30;;;3.60;99.90;;;;;;4731973;30;20078;-78
2021/01/19 07:14:11;;;;;;;5.05;2.20;;;3.60;99.90;;;;;;4730857;30;20040;-77
2021/01/19 07:16:56;;;;;;;3.35;2.10;;;3.70;99.90;;;;;;4737468;30;20040;-78
2021/01/19 07:19:44;;;;;;;2.85;1.88;;;3.70;99.90;;;;;;4730902;30;20466;-78
2021/01/19 07:22:36;;;;;;;4.07;2.08;;;3.70;99.90;;;;;;4732425;30;20037;-77
2021/01/19 07:25:02;;;;;;;4.65;2.42;;;3.80;99.90;;;;;;4719070;30;20039;-78
2021/01/19 07:27:30;;;;;;;4.68;2.20;;;3.90;99.90;;;;;;4741674;30;20063;-78
2021/01/19 07:29:56;;;;;;;6.15;1.85;;;4.00;99.90;;;;;;4741619;30;20486;-78
2021/01/19 07:32:28;;;;;;;5.00;2.25;;;4.10;99.90;;;;;;4732231;30;20514;-78
2021/01/19 07:34:54;;;;;;;2.75;1.60;;;4.20;99.90;;;;;;4731152;30;20040;-78
2021/01/19 07:37:30;;;;;;;6.18;2.47;;;4.40;99.90;;;;;;4733639;30;20037;-78
2021/01/19 07:39:57;;;;;;;5.45;2.90;;;4.50;99.90;;;;;;4721996;30;20028;-78
2021/01/19 07:42:24;;;;;;;4.32;2.67;;;4.60;99.90;;;;;;4714731;30;20110;-79
2021/01/19 07:45:01;;;;;;;4.43;2.60;;;4.70;99.90;;;;;;4714302;30;20041;-78
2021/01/19 07:47:39;;;;;;;4.10;2.25;;;4.80;99.90;;;;;;4738119;30;20024;-77
2021/01/19 07:50:14;;;;;;;7.18;2.85;;;4.90;99.90;;;;;;4738856;30;20085;-78
2021/01/19 07:52:48;;;;;;;5.15;2.95;;;5.00;99.90;;;;;;4732157;30;20037;-78
2021/01/19 07:55:19;;;;;;;4.43;2.33;;;5.00;99.90;;;;;;4732120;30;20037;-78
2021/01/19 07:57:50;;;;;;;4.85;2.50;;;5.10;99.90;;;;;;4734721;30;20489;-78
2021/01/19 08:00:24;;;;;;;4.00;1.65;;;5.10;99.90;;;;;;4736753;30;20032;-78
2021/01/19 08:03:05;;;;;;;4.00;2.30;;;5.20;99.90;;;;;;4714636;30;20029;-78
2021/01/19 08:05:31;;;;;;;4.50;2.03;;;5.30;99.90;;;;;;4714256;30;20060;-78
2021/01/19 08:07:59;;;;;;;3.25;1.88;;;5.40;99.90;;;;;;4735260;30;20052;-78
2021/01/19 08:10:28;;;;;;;3.75;2.03;;;5.50;99.90;;;;;;4730622;30;20044;-78
2021/01/19 08:13:03;;;;;;;3.83;2.05;;;5.50;99.90;;;;;;4714340;30;20033;-78
2021/01/19 08:15:31;;;;;;;2.35;1.88;;;5.60;99.90;;;;;;4720584;30;20063;-78
2021/01/19 08:17:59;;;;;;;3.75;1.83;;;5.70;99.90;;;;;;4721598;30;20036;-78
2021/01/19 08:20:31;;;;;;;2.85;1.73;;;5.80;99.90;;;;;;4714166;30;20100;-78
2021/01/19 08:23:13;;;;;;;2.58;1.77;;;5.90;99.90;;;;;;4730209;30;20487;-78
2021/01/19 08:25:40;;;;;;;6.90;2.08;;;6.00;99.90;;;;;;4733411;30;20047;-78
2021/01/19 08:28:06;;;;;;;5.03;2.17;;;6.10;99.90;;;;;;4741581;30;20051;-79
2021/01/19 08:30:33;;;;;;;3.05;2.08;;;6.20;99.90;;;;;;4731934;30;20040;-79
2021/01/19 08:33:00;;;;;;;3.97;1.95;;;6.30;99.90;;;;;;4717471;30;20029;-78
2021/01/19 08:35:29;;;;;;;2.67;1.88;;;6.30;99.90;;;;;;4727691;30;20064;-78
2021/01/19 08:37:57;;;;;;;2.70;1.70;;;6.40;99.90;;;;;;4748949;30;20036;-79
2021/01/19 08:40:34;;;;;;;3.08;1.70;;;6.40;99.90;;;;;;4747934;30;20036;-78
2021/01/19 08:43:05;;;;;;;3.65;1.98;;;6.50;99.90;;;;;;4735254;30;20044;-78
2021/01/19 08:45:38;;;;;;;4.60;1.73;;;6.60;99.90;;;;;;4733076;30;20033;-78
2021/01/19 08:48:06;;;;;;;3.38;1.90;;;6.70;99.90;;;;;;4731544;30;20032;-78
2021/01/19 08:50:36;;;;;;;3.20;2.22;;;6.80;99.90;;;;;;4731326;30;20064;-78
2021/01/19 08:53:08;;;;;;;10.57;1.65;;;6.90;99.90;;;;;;4731187;30;20387;-78
2021/01/19 08:55:35;;;;;;;2.20;1.00;;;7.00;99.90;;;;;;4730240;30;20132;-78
2021/01/19 08:58:01;;;;;;;3.33;1.63;;;7.10;99.90;;;;;;4751259;30;20032;-77
2021/01/19 09:00:36;;;;;;;8.40;1.73;;;7.20;99.90;;;;;;4745911;30;20493;-77
2021/01/19 09:03:18;;;;;;;2.67;1.80;;;7.30;99.90;;;;;;4726779;30;20043;-76
2021/01/19 09:05:44;;;;;;;2.95;1.48;;;7.40;99.90;;;;;;4740232;30;20029;-77
2021/01/19 09:08:14;;;;;;;5.43;3.30;;;7.50;99.90;;;;;;4743999;30;20398;-77
2021/01/19 09:10:40;;;;;;;5.70;3.72;;;7.60;99.90;;;;;;4742186;30;20386;-77
2021/01/19 09:13:07;;;;;;;3.60;1.90;;;7.70;99.90;;;;;;4741245;30;20057;-77
2021/01/19 09:15:43;;;;;;;5.95;1.85;;;7.70;99.90;;;;;;4738513;30;20036;-77
2021/01/19 09:18:14;;;;;;;3.20;2.00;;;7.80;99.90;;;;;;4747093;30;20040;-78
2021/01/19 09:20:45;;;;;;;4.10;1.85;;;7.80;99.90;;;;;;4734008;30;20041;-78
2021/01/19 09:23:16;;;;;;;4.22;2.47;;;7.90;99.90;;;;;;4733493;30;20040;-78
2021/01/19 09:25:47;;;;;;;4.05;2.83;;;8.00;99.90;;;;;;4723456;30;20083;-77
2021/01/19 09:28:15;;;;;;;3.58;1.98;;;8.10;99.90;;;;;;4744115;30;20036;-78
2021/01/19 09:30:42;;;;;;;3.30;2.28;;;8.20;99.90;;;;;;4733898;30;20503;-77
2021/01/19 09:33:11;;;;;;;8.00;2.67;;;8.30;99.90;;;;;;4733991;30;20040;-81
2021/01/19 09:35:38;;;;;;;5.53;2.28;;;8.40;99.90;;;;;;4730665;30;20050;-75
2021/01/19 09:38:13;;;;;;;3.55;1.70;;;8.50;99.90;;;;;;4734122;30;20028;-78
2021/01/19 09:40:39;;;;;;;2.58;1.60;;;8.60;99.90;;;;;;4733874;30;20398;-77
2021/01/19 09:43:13;;;;;;;5.45;2.70;;;8.70;99.90;;;;;;4733530;30;20037;-77
2021/01/19 09:45:40;;;;;;;6.50;2.75;;;8.80;99.90;;;;;;4733395;30;20040;-77
2021/01/19 09:48:08;;;;;;;2.95;1.63;;;8.80;99.90;;;;;;4736903;30;20501;-77
2021/01/19 09:50:34;;;;;;;3.15;1.63;;;9.00;99.90;;;;;;4733481;30;20047;-77
2021/01/19 09:53:00;;;;;;;3.40;1.90;;;9.10;99.90;;;;;;4733495;30;20041;-77
2021/01/19 09:55:31;;;;;;;3.47;2.22;;;9.20;99.90;;;;;;4733465;30;20041;-77
2021/01/19 09:58:05;;;;;;;2.63;1.58;;;9.30;99.90;;;;;;4735096;30;20115;-78
2021/01/19 10:00:34;;;;;;;4.88;2.20;;;9.40;99.90;;;;;;4719436;30;20109;-77
2021/01/19 10:03:19;;;;;;;2.65;1.33;;;9.50;99.90;;;;;;4742130;30;20041;-77
2021/01/19 10:06:04;;;;;;;3.63;2.10;;;9.60;99.90;;;;;;4732789;30;20380;-77
2021/01/19 10:08:31;;;;;;;3.10;1.65;;;9.70;99.90;;;;;;4720175;30;20499;-78
2021/01/19 10:10:58;;;;;;;2.58;1.25;;;9.80;99.90;;;;;;4733220;30;20040;-78
2021/01/19 10:13:27;;;;;;;1.75;1.30;;;10.10;99.90;;;;;;4720764;30;20025;-78
2021/01/19 10:16:01;;;;;;;2.20;1.15;;;10.20;99.90;;;;;;4727761;30;20083;-77
2021/01/19 10:18:28;;;;;;;2.92;1.70;;;10.30;99.90;;;;;;4718734;30;20070;-77
2021/01/19 10:20:54;;;;;;;4.00;1.58;;;10.40;99.90;;;;;;4744107;30;20120;-77
2021/01/19 10:23:32;;;;;;;1.75;1.23;;;10.50;99.90;;;;;;4725760;30;20045;-78
2021/01/19 10:26:12;;;;;;;2.67;1.00;;;10.60;99.90;;;;;;4725150;30;20124;-77
2021/01/19 10:28:44;;;;;;;1.10;0.82;;;10.80;99.90;;;;;;4724336;30;20053;-78
2021/01/19 10:31:21;;;;;;;3.88;1.20;;;10.80;99.90;;;;;;4722342;30;20387;-78
2021/01/19 10:34:05;;;;;;;2.03;1.38;;;11.00;99.90;;;;;;4718457;30;20045;-76
2021/01/19 10:36:33;;;;;;;1.27;0.80;;;11.00;99.80;;;;;;4716500;30;20077;-76
2021/01/19 10:39:17;;;;;;;0.80;0.45;;;10.80;99.40;;;;;;4715952;30;20115;-76
2021/01/19 10:41:45;;;;;;;1.42;0.70;;;10.80;99.20;;;;;;4716188;30;20021;-77
2021/01/19 10:44:12;;;;;;;2.03;0.82;;;11.00;99.90;;;;;;4718824;30;20047;-75
2021/01/19 10:46:38;;;;;;;0.90;0.57;;;11.20;99.80;;;;;;4732581;30;20036;-75
2021/01/19 10:49:11;;;;;;;1.85;1.05;;;11.10;99.10;;;;;;4734539;30;20082;-78
2021/01/19 10:51:37;;;;;;;1.30;0.65;;;11.00;99.70;;;;;;4732285;30;20494;-77
2021/01/19 10:54:13;;;;;;;5.28;1.17;;;11.00;99.50;;;;;;4730464;30;20048;-77
2021/01/19 10:56:41;;;;;;;3.03;1.27;;;11.10;99.50;;;;;;4732072;30;20028;-78
2021/01/19 10:59:08;;;;;;;1.15;0.90;;;11.30;98.70;;;;;;4730154;30;20040;-77
2021/01/19 11:01:37;;;;;;;1.73;0.60;;;11.30;98.40;;;;;;4727182;30;20037;-78
2021/01/19 11:04:05;;;;;;;1.20;0.50;;;11.50;98.30;;;;;;4729349;30;20517;-77
2021/01/19 11:06:37;;;;;;;2.63;1.45;;;11.40;97.40;;;;;;4731273;30;20406;-77
2021/01/19 11:09:05;;;;;;;3.90;2.60;;;10.90;97.70;;;;;;4731716;30;20045;-75
2021/01/19 11:11:31;;;;;;;2.13;1.65;;;11.00;98.10;;;;;;4730959;30;20502;-75
2021/01/19 11:14:03;;;;;;;0.80;0.80;;;11.10;98.30;;;;;;4732030;30;20040;-75
2021/01/19 11:16:38;;;;;;;1.02;0.75;;;11.30;97.60;;;;;;4716614;30;20102;-75
2021/01/19 11:19:08;;;;;;;3.38;0.65;;;11.40;97.30;;;;;;4730078;30;20033;-75
2021/01/19 11:21:35;;;;;;;2.17;0.80;;;11.30;96.40;;;;;;4725707;30;20064;-75
2021/01/19 11:24:03;;;;;;;0.50;0.50;;;11.50;96.40;;;;;;4732131;30;20040;-75
2021/01/19 11:26:29;;;;;;;1.05;0.90;;;11.50;95.20;;;;;;4717597;30;20021;-75
2021/01/19 11:28:57;;;;;;;1.48;0.88;;;11.50;95.70;;;;;;4731206;30;20068;-75
2021/01/19 11:31:25;;;;;;;1.95;1.10;;;11.60;94.40;;;;;;4731967;30;20068;-76
2021/01/19 11:33:52;;;;;;;1.42;1.20;;;11.60;94.30;;;;;;4727547;30;20510;-75
2021/01/19 11:36:27;;;;;;;0.93;0.70;;;11.70;92.60;;;;;;4731989;30;20036;-75
2021/01/19 11:38:54;;;;;;;1.40;1.00;;;11.70;93.00;;;;;;4731867;30;20036;-78
2021/01/19 11:41:22;;;;;;;4.00;0.80;;;11.70;92.10;;;;;;4737077;30;20056;-76
2021/01/19 11:43:49;;;;;;;0.90;0.75;;;11.90;93.70;;;;;;4731427;30;20040;-76
2021/01/19 11:46:24;;;;;;;1.35;0.77;;;12.00;92.60;;;;;;4731648;30;20040;-76
2021/01/19 11:48:51;;;;;;;1.48;0.88;;;12.10;92.80;;;;;;4731548;30;20098;-76
2021/01/19 11:51:19;;;;;;;1.88;0.88;;;12.20;93.50;;;;;;4735542;30;20544;-75
2021/01/19 11:53:57;;;;;;;2.67;1.73;;;12.20;95.00;;;;;;4731462;30;20039;-77
2021/01/19 11:56:47;;;;;;;1.38;1.00;;;12.30;93.40;;;;;;4731806;30;20036;-76
2021/01/19 11:59:13;;;;;;;1.73;1.10;;;12.40;94.90;;;;;;4733290;30;20046;-79
2021/01/19 12:01:40;;;;;;;2.03;1.40;;;12.50;95.80;;;;;;4730145;30;20075;-76
2021/01/19 12:04:07;;;;;;;1.35;1.20;;;12.40;96.50;;;;;;4731201;30;20490;-77
2021/01/19 12:06:43;;;;;;;1.63;1.27;;;12.30;96.70;;;;;;4730095;30;20090;-76
2021/01/19 12:09:11;;;;;;;1.23;0.80;;;12.20;96.20;;;;;;4739500;30;20064;-77
2021/01/19 12:11:42;;;;;;;2.05;1.15;;;12.30;96.10;;;;;;4731918;30;20044;-76
2021/01/19 12:14:09;;;;;;;1.50;1.00;;;12.30;95.80;;;;;;4731181;30;20040;-77
2021/01/19 12:16:35;;;;;;;2.00;1.13;;;12.30;95.40;;;;;;4731101;30;20040;-76
2021/01/19 12:19:02;;;;;;;3.13;0.85;;;12.00;96.00;;;;;;4730926;30;20490;-77
2021/01/19 12:21:28;;;;;;;2.78;1.25;;;11.70;96.00;;;;;;4735024;30;20032;-77
2021/01/19 12:23:54;;;;;;;3.08;1.25;;;11.40;96.80;;;;;;4746387;30;20032;-78
2021/01/19 12:26:20;;;;;;;2.78;1.20;;;11.50;97.50;;;;;;4731367;30;20160;-79
2021/01/19 12:28:47;;;;;;;3.28;1.45;;;11.60;97.50;;;;;;4729821;30;20136;-78
2021/01/19 12:31:13;;;;;;;2.33;1.20;;;11.70;97.50;;;;;;4715381;30;20475;-78
2021/01/19 12:33:39;;;;;;;1.23;0.82;;;11.60;97.10;;;;;;4730998;30;20116;-77
2021/01/19 12:36:06;;;;;;;2.17;1.30;;;11.80;96.00;;;;;;4730731;30;20094;-77
2021/01/19 12:38:32;;;;;;;2.33;1.10;;;12.10;95.60;;;;;;4730740;30;20115;-77
2021/01/19 12:40:59;;;;;;;3.28;1.30;;;12.40;95.80;;;;;;4731760;30;20112;-77
2021/01/19 12:43:25;;;;;;;2.58;1.30;;;12.60;95.40;;;;;;4737788;30;20044;-77
2021/01/19 12:45:51;;;;;;;12.60;1.70;;;12.80;95.80;;;;;;4735551;30;20086;-78
2021/01/19 12:48:17;;;;;;;1.98;1.20;;;12.30;95.40;;;;;;4730294;30;20433;-77
2021/01/19 12:50:43;;;;;;;2.30;1.30;;;12.40;95.30;;;;;;4731842;30;20124;-77
2021/01/19 12:53:10;;;;;;;3.50;1.40;;;12.70;95.70;;;;;;4740240;30;20033;-77
2021/01/19 12:55:37;;;;;;;1.25;1.02;;;12.70;94.40;;;;;;4730739;30;20032;-77
2021/01/19 12:58:03;;;;;;;8.40;2.17;;;12.70;94.00;;;;;;4729047;30;20032;-77
2021/01/19 13:00:29;;;;;;;3.15;1.40;;;13.00;94.40;;;;;;4730747;30;20060;-77
2021/01/19 13:02:55;;;;;;;5.18;1.52;;;13.00;94.20;;;;;;4738917;30;20128;-77
2021/01/19 13:05:21;;;;;;;2.25;1.90;;;12.90;93.20;;;;;;4729437;30;20036;-77
2021/01/19 13:07:48;;;;;;;12.27;9.00;;;13.30;93.70;;;;;;4730221;30;20406;-77
2021/01/19 13:10:14;;;;;;;6.50;5.78;;;12.80;93.80;;;;;;4730482;30;20052;-78
2021/01/19 13:12:41;;;;;;;5.65;4.28;;;12.70;94.60;;;;;;4736214;30;20032;-77
2021/01/19 13:15:08;;;;;;;4.97;2.58;;;12.30;94.10;;;;;;4729910;30;20053;-78
2021/01/19 13:17:35;;;;;;;4.00;2.90;;;12.00;94.90;;;;;;4729902;30;20036;-77
2021/01/19 13:20:04;;;;;;;4.38;3.63;;;11.80;94.90;;;;;;4730736;30;20094;-77
2021/01/19 13:22:30;;;;;;;3.88;2.65;;;11.80;95.20;;;;;;4721759;30;20576;-77
2021/01/19 13:24:56;;;;;;;13.57;7.68;;;11.60;96.80;;;;;;4730854;30;20033;-78
2021/01/19 13:27:22;;;;;;;11.00;5.97;;;11.90;97.00;;;;;;4730629;30;20487;-78
2021/01/19 13:29:48;;;;;;;8.75;6.10;;;12.30;96.00;;;;;;4730012;30;20538;-80
2021/01/19 13:32:15;;;;;;;4.97;3.67;;;12.80;95.60;;;;;;4730822;30;20491;-79
2021/01/19 13:34:41;;;;;;;9.18;5.60;;;13.40;94.90;;;;;;4729329;30;20139;-79
2021/01/19 13:37:08;;;;;;;2.97;2.15;;;13.90;93.90;;;;;;4730963;30;20025;-81
2021/01/19 13:39:35;;;;;;;6.30;3.83;;;14.30;93.40;;;;;;4729083;30;20375;-78
2021/01/19 13:42:02;;;;;;;6.93;4.15;;;14.30;93.40;;;;;;4730128;30;20044;-79
2021/01/19 13:44:28;;;;;;;4.55;3.05;;;14.60;93.90;;;;;;4730935;30;20037;-78
2021/01/19 13:46:55;;;;;;;5.93;4.18;;;14.50;93.10;;;;;;4731740;30;20048;-78
2021/01/19 13:49:22;;;;;;;3.45;2.80;;;14.30;93.20;;;;;;4731487;30;20573;-78
2021/01/19 13:51:48;;;;;;;7.32;3.05;;;13.90;93.60;;;;;;4729043;30;20125;-78
2021/01/19 13:54:15;;;;;;;4.95;2.97;;;13.40;94.30;;;;;;4733295;30;20097;-78
2021/01/19 13:56:42;;;;;;;4.97;2.70;;;13.00;94.90;;;;;;4732387;30;20045;-78
2021/01/19 13:59:33;;;;;;;7.47;2.92;;;12.50;95.60;;;;;;4732325;30;20094;-77
2021/01/19 14:01:59;;;;;;;5.38;2.85;;;12.30;96.50;;;;;;4732074;30;20403;-77
2021/01/19 14:04:25;;;;;;;4.07;1.70;;;12.40;96.60;;;;;;4735298;30;20497;-77
2021/01/19 14:06:51;;;;;;;2.00;1.42;;;12.20;96.50;;;;;;4732711;30;20588;-77
2021/01/19 14:09:17;;;;;;;2.42;1.58;;;12.00;96.10;;;;;;4732177;30;20071;-77
2021/01/19 14:11:44;;;;;;;3.28;1.42;;;11.50;96.60;;;;;;4729586;30;20415;-77
2021/01/19 14:14:23;;;;;;;2.53;1.10;;;11.30;96.70;;;;;;4730083;30;20047;-78
2021/01/19 14:16:55;;;;;;;2.25;1.35;;;11.40;96.90;;;;;;4725688;30;20093;-78
2021/01/19 14:19:22;;;;;;;2.85;1.75;;;11.60;96.40;;;;;;4732209;30;20045;-77
2021/01/19 14:21:56;;;;;;;3.63;1.45;;;12.00;96.40;;;;;;4731184;30;20048;-77
2021/01/19 14:24:23;;;;;;;3.03;2.22;;;12.50;96.10;;;;;;4733409;30;20509;-77
2021/01/19 14:26:49;;;;;;;5.60;3.47;;;12.80;96.10;;;;;;4733477;30;20044;-77
2021/01/19 14:29:16;;;;;;;3.97;2.60;;;13.30;95.70;;;;;;4732655;30;20041;-77
2021/01/19 14:31:46;;;;;;;3.40;2.55;;;13.50;95.00;;;;;;4724507;30;20102;-78
2021/01/19 14:34:18;;;;;;;7.28;2.97;;;13.90;94.90;;;;;;4723691;30;20090;-77
2021/01/19 14:36:47;;;;;;;5.50;2.75;;;14.10;94.60;;;;;;4731461;30;20353;-77
2021/01/19 14:39:14;;;;;;;3.53;3.00;;;14.40;94.30;;;;;;4722814;30;20098;-77
2021/01/19 14:41:42;;;;;;;8.30;4.80;;;14.50;94.40;;;;;;4722597;30;20122;-77
2021/01/19 14:44:10;;;;;;;4.63;3.55;;;14.60;93.60;;;;;;4731546;30;20486;-77
2021/01/19 14:46:37;;;;;;;10.07;7.03;;;14.80;93.70;;;;;;4732190;30;20036;-77
2021/01/19 14:49:07;;;;;;;6.80;4.25;;;14.90;93.70;;;;;;4732913;30;20076;-77
2021/01/19 14:51:37;;;;;;;3.85;3.17;;;14.90;93.10;;;;;;4732726;30;20450;-77
2021/01/19 14:54:03;;;;;;;5.97;4.00;;;14.90;93.20;;;;;;4731946;30;20506;-78
2021/01/19 14:56:35;;;;;;;5.13;3.10;;;14.90;92.80;;;;;;4730843;30;20052;-78
2021/01/19 14:59:02;;;;;;;2.10;1.77;;;14.90;92.70;;;;;;4732254;30;20568;-77
2021/01/19 15:01:43;;;;;;;3.50;1.58;;;14.60;92.40;;;;;;4730406;30;20032;-77
2021/01/19 15:04:18;;;;;;;17.35;10.93;;;14.50;92.40;;;;;;4732587;30;20036;-77
2021/01/19 15:06:53;;;;;;;7.97;5.60;;;14.40;92.60;;;;;;4737637;30;20057;-77
2021/01/19 15:09:24;;;;;;;3.22;2.55;;;14.10;92.60;;;;;;4735586;30;20040;-77
2021/01/19 15:12:01;;;;;;;5.07;2.35;;;13.70;93.10;;;;;;4729944;30;20494;-77
2021/01/19 15:14:29;;;;;;;9.07;2.65;;;13.10;93.80;;;;;;4716968;30;20036;-77
2021/01/19 15:16:57;;;;;;;8.07;2.63;;;12.70;94.90;;;;;;4728323;30;20067;-77
2021/01/19 15:19:25;;;;;;;8.73;3.33;;;12.30;95.70;;;;;;4730822;30;20102;-77
2021/01/19 15:21:51;;;;;;;9.63;3.35;;;12.10;96.30;;;;;;4731502;30;20098;-77
2021/01/19 15:24:17;;;;;;;22.23;8.43;;;11.80;96.80;;;;;;4732193;30;20387;-77
2021/01/19 15:26:47;;;;;;;18.17;9.77;;;11.60;97.10;;;;;;4730972;30;20111;-77
2021/01/19 15:29:13;;;;;;;20.17;11.65;;;11.50;97.60;;;;;;4732065;30;20039;-77
2021/01/19 15:31:49;;;;;;;25.35;12.35;;;11.30;97.90;;;;;;4731785;30;20025;-77
2021/01/19 15:34:17;;;;;;;25.25;13.70;;;11.20;98.30;;;;;;4731759;30;20387;-77
2021/01/19 15:36:44;;;;;;;40.60;16.30;;;11.30;98.60;;;;;;4735743;30;20252;-77
2021/01/19 15:39:10;;;;;;;29.67;12.75;;;11.30;98.50;;;;;;4739822;30;20032;-77
2021/01/19 15:41:37;;;;;;;17.67;6.18;;;11.30;98.10;;;;;;4732197;30;20048;-76
2021/01/19 15:44:04;;;;;;;9.48;5.10;;;11.20;98.10;;;;;;4731597;30;20372;-76
2021/01/19 15:46:33;;;;;;;10.20;4.80;;;11.10;98.30;;;;;;4730376;30;20524;-77
2021/01/19 15:49:00;;;;;;;12.35;4.88;;;11.00;98.50;;;;;;4739594;30;20051;-77
2021/01/19 15:51:26;;;;;;;13.77;7.50;;;10.80;98.80;;;;;;4731761;30;20035;-77
2021/01/19 15:53:53;;;;;;;23.73;12.05;;;10.70;99.10;;;;;;4729762;30;20389;-76
2021/01/19 15:56:29;;;;;;;23.13;11.27;;;10.60;99.50;;;;;;4731516;30;20039;-77
2021/01/19 15:58:57;;;;;;;31.60;12.18;;;10.50;99.80;;;;;;4716817;30;20040;-77
2021/01/19 16:01:24;;;;;;;23.95;11.65;;;10.40;99.90;;;;;;4723883;30;20059;-77
2021/01/19 16:03:50;;;;;;;22.35;12.07;;;10.30;99.90;;;;;;4742414;30;20047;-77
2021/01/19 16:06:16;;;;;;;23.88;12.07;;;10.30;99.90;;;;;;4731420;30;20032;-77
2021/01/19 16:08:42;;;;;;;22.08;11.77;;;10.20;99.90;;;;;;4731610;30;20083;-77
2021/01/19 16:11:09;;;;;;;29.23;14.70;;;10.20;99.90;;;;;;4731416;30;20037;-77
2021/01/19 16:13:38;;;;;;;15.88;10.05;;;10.10;99.90;;;;;;4730641;30;20040;-76
2021/01/19 16:16:06;;;;;;;16.17;6.43;;;10.00;99.90;;;;;;4730498;30;20052;-77
2021/01/19 16:18:33;;;;;;;12.73;5.95;;;9.90;99.90;;;;;;4732934;30;20051;-77
2021/01/19 16:20:59;;;;;;;17.98;7.90;;;9.80;99.90;;;;;;4730237;30;20051;-77
2021/01/19 16:23:25;;;;;;;21.67;9.13;;;9.80;99.90;;;;;;4731210;30;20037;-78
2021/01/19 16:25:52;;;;;;;24.50;9.75;;;9.70;99.90;;;;;;4731561;30;20462;-77
2021/01/19 16:28:18;;;;;;;26.00;8.85;;;9.60;99.90;;;;;;4730283;30;20034;-77
2021/01/19 16:30:51;;;;;;;30.23;10.18;;;9.50;99.90;;;;;;4729816;30;20033;-77
2021/01/19 16:33:18;;;;;;;29.13;8.73;;;9.50;99.90;;;;;;4731087;30;20077;-78
2021/01/19 16:35:47;;;;;;;19.23;8.57;;;9.40;99.90;;;;;;4721902;30;20041;-77
2021/01/19 16:38:13;;;;;;;18.75;8.13;;;9.40;99.90;;;;;;4729246;30;20031;-77
2021/01/19 16:40:40;;;;;;;15.95;7.07;;;9.30;99.90;;;;;;4723377;30;20037;-78
2021/01/19 16:43:06;;;;;;;16.38;8.32;;;9.30;99.90;;;;;;4714531;30;20036;-78
2021/01/19 16:45:32;;;;;;;16.73;7.00;;;9.20;99.90;;;;;;4730084;30;20505;-78
2021/01/19 16:47:58;;;;;;;19.90;7.93;;;9.10;99.90;;;;;;4721861;30;20093;-78
2021/01/19 16:50:24;;;;;;;17.15;8.32;;;9.10;99.90;;;;;;4722004;30;20048;-78
2021/01/19 16:52:54;;;;;;;16.38;8.30;;;9.10;99.90;;;;;;4728081;30;20106;-78
2021/01/19 16:55:21;;;;;;;17.10;7.95;;;9.10;99.90;;;;;;4719776;30;20415;-78
2021/01/19 16:57:48;;;;;;;18.75;9.38;;;9.00;99.90;;;;;;4713162;30;20048;-78
2021/01/19 17:00:15;;;;;;;22.80;9.95;;;9.00;99.90;;;;;;4714422;30;20112;-78
2021/01/19 17:02:41;;;;;;;14.18;7.63;;;8.90;99.90;;;;;;4718685;30;20111;-78
2021/01/19 17:05:08;;;;;;;16.40;8.48;;;8.90;99.90;;;;;;4722082;30;20048;-78
2021/01/19 17:07:37;;;;;;;15.18;9.52;;;8.90;99.90;;;;;;4729703;30;20492;-78
2021/01/19 17:10:04;;;;;;;22.30;10.20;;;8.80;99.90;;;;;;4731374;30;20276;-78
2021/01/19 17:12:31;;;;;;;15.38;10.20;;;8.80;99.90;;;;;;4726434;30;20376;-78
2021/01/19 17:14:57;;;;;;;21.45;10.52;;;8.80;99.90;;;;;;4730620;30;20564;-78
2021/01/19 17:17:23;;;;;;;19.85;9.65;;;8.70;99.90;;;;;;4731114;30;20037;-78
2021/01/19 17:19:52;;;;;;;16.55;9.38;;;8.70;99.90;;;;;;4734401;30;20029;-78
2021/01/19 17:22:19;;;;;;;16.25;9.18;;;8.70;99.90;;;;;;4716346;30;20045;-78
2021/01/19 17:24:45;;;;;;;18.25;10.00;;;8.60;99.90;;;;;;4725319;30;20383;-78
2021/01/19 17:27:13;;;;;;;22.10;10.30;;;8.60;99.90;;;;;;4734161;30;20552;-78